createdAt,value
2017-06-19T00:01:06.063Z,17.30
2017-06-19T00:03:33.496Z,17.20
2017-06-19T00:06:00.929Z,17.20
2017-06-19T00:08:28.370Z,17.20
2017-06-19T00:10:55.804Z,17.20
2017-06-19T00:13:23.243Z,17.10
2017-06-19T00:15:50.665Z,17.10
2017-06-19T00:18:18.863Z,17.00
2017-06-19T00:21:03.075Z,17.00
2017-06-19T00:23:36.308Z,17.10
2017-06-19T00:26:03.769Z,17.10
2017-06-19T00:28:31.201Z,17.10
2017-06-19T00:30:59.393Z,17.30
2017-06-19T00:33:26.832Z,17.30
2017-06-19T00:35:54.253Z,17.40
2017-06-19T00:38:21.692Z,17.40
2017-06-19T00:40:49.122Z,17.40
2017-06-19T00:43:16.565Z,17.30
2017-06-19T00:45:43.996Z,17.40
2017-06-19T00:48:11.437Z,17.40
2017-06-19T00:50:38.873Z,17.40
2017-06-19T00:53:06.310Z,17.40
2017-06-19T00:55:33.732Z,17.30
2017-06-19T00:58:01.168Z,17.40
2017-06-19T01:00:28.595Z,17.30
2017-06-19T01:02:56.056Z,17.30
2017-06-19T01:05:23.493Z,17.30
2017-06-19T01:07:50.921Z,17.10
2017-06-19T01:10:19.129Z,16.60
2017-06-19T01:12:46.561Z,16.60
2017-06-19T01:15:14.760Z,16.50
2017-06-19T01:17:42.188Z,16.40
2017-06-19T01:20:10.390Z,16.30
2017-06-19T01:22:37.823Z,16.30
2017-06-19T01:25:06.022Z,16.20
2017-06-19T01:27:33.477Z,16.20
2017-06-19T01:30:00.913Z,16.20
2017-06-19T01:32:29.110Z,16.10
2017-06-19T01:34:56.645Z,16.10
2017-06-19T01:37:24.853Z,16.20
2017-06-19T01:39:52.300Z,16.20
2017-06-19T01:42:19.733Z,16.20
2017-06-19T01:44:47.934Z,16.30
2017-06-19T01:47:15.368Z,16.30
2017-06-19T01:49:43.565Z,16.30
2017-06-19T01:52:11.021Z,16.30
2017-06-19T01:54:38.460Z,16.30
2017-06-19T01:57:05.892Z,16.40
2017-06-19T01:59:33.320Z,16.40
2017-06-19T02:02:00.759Z,16.50
2017-06-19T02:04:28.198Z,16.50
2017-06-19T02:06:55.629Z,16.50
2017-06-19T02:09:23.825Z,16.50
2017-06-19T02:11:51.257Z,16.50
2017-06-19T02:14:19.461Z,16.50
2017-06-19T02:16:46.917Z,16.50
2017-06-19T02:19:14.354Z,16.50
2017-06-19T02:21:42.548Z,16.50
2017-06-19T02:24:09.980Z,16.40
2017-06-19T02:26:38.180Z,16.50
2017-06-19T02:29:05.632Z,16.50
2017-06-19T02:31:33.061Z,16.40
2017-06-19T02:34:00.497Z,16.40
2017-06-19T02:36:27.933Z,16.40
2017-06-19T02:38:55.437Z,16.40
2017-06-19T02:41:23.657Z,16.50
2017-06-19T02:43:51.088Z,16.50
2017-06-19T02:46:18.521Z,16.50
2017-06-19T02:48:46.725Z,16.50
2017-06-19T02:51:14.237Z,16.50
2017-06-19T02:53:41.697Z,16.60
2017-06-19T02:56:09.117Z,16.60
2017-06-19T02:58:36.544Z,16.60
2017-06-19T03:01:03.985Z,16.50
2017-06-19T03:03:32.189Z,16.50
2017-06-19T03:05:59.645Z,16.50
2017-06-19T03:08:27.076Z,16.60
2017-06-19T03:10:55.280Z,16.60
2017-06-19T03:13:22.728Z,16.60
2017-06-19T03:15:50.925Z,16.60
2017-06-19T03:18:18.378Z,16.60
2017-06-19T03:20:45.809Z,16.60
2017-06-19T03:23:13.240Z,16.60
2017-06-19T03:25:41.449Z,16.60
2017-06-19T03:28:08.880Z,16.60
2017-06-19T03:30:37.092Z,16.50
2017-06-19T03:33:04.525Z,16.50
2017-06-19T03:35:31.956Z,16.50
2017-06-19T03:37:59.397Z,16.50
2017-06-19T03:40:26.824Z,16.40
2017-06-19T03:42:54.260Z,16.40
2017-06-19T03:45:21.684Z,16.50
2017-06-19T03:47:49.881Z,16.50
2017-06-19T03:50:17.316Z,16.40
2017-06-19T03:52:45.509Z,16.50
2017-06-19T03:55:12.953Z,16.50
2017-06-19T03:57:41.144Z,16.50
2017-06-19T04:00:08.851Z,16.40
2017-06-19T04:02:36.277Z,16.40
2017-06-19T04:05:03.713Z,16.40
2017-06-19T04:07:31.912Z,16.40
2017-06-19T04:09:59.341Z,16.40
2017-06-19T04:12:27.554Z,16.40
2017-06-19T04:14:54.985Z,16.40
2017-06-19T04:17:22.449Z,16.40
2017-06-19T04:19:49.872Z,16.40
2017-06-19T04:22:17.315Z,16.40
2017-06-19T04:24:44.746Z,16.50
2017-06-19T04:27:12.187Z,16.50
2017-06-19T04:29:39.657Z,16.50
2017-06-19T04:32:07.085Z,16.60
2017-06-19T04:34:34.529Z,16.70
2017-06-19T04:37:02.828Z,16.80
2017-06-19T04:39:30.257Z,16.70
2017-06-19T04:41:58.456Z,16.90
2017-06-19T04:44:25.889Z,16.90
2017-06-19T04:46:54.103Z,17.10
2017-06-19T04:49:21.528Z,17.00
2017-06-19T04:51:48.968Z,17.10
2017-06-19T04:54:16.409Z,17.20
2017-06-19T04:56:43.837Z,17.30
2017-06-19T04:59:11.290Z,17.40
2017-06-19T05:01:38.714Z,17.50
2017-06-19T05:04:06.153Z,17.60
2017-06-19T05:06:34.345Z,17.90
2017-06-19T05:09:01.786Z,17.90
2017-06-19T05:11:29.985Z,18.30
2017-06-19T05:13:57.409Z,18.30
2017-06-19T05:16:25.617Z,18.70
2017-06-19T05:18:53.057Z,18.70
2017-06-19T05:21:21.268Z,18.90
2017-06-19T05:23:48.701Z,18.90
2017-06-19T05:26:16.157Z,19.20
2017-06-19T05:28:43.580Z,19.50
2017-06-19T05:31:11.008Z,19.60
2017-06-19T05:33:38.450Z,19.80
2017-06-19T05:36:05.880Z,19.90
2017-06-19T05:38:33.317Z,20.00
2017-06-19T05:41:01.513Z,20.20
2017-06-19T05:43:28.974Z,20.20
2017-06-19T05:45:56.405Z,20.50
2017-06-19T05:48:24.600Z,20.50
2017-06-19T05:50:52.032Z,20.50
2017-06-19T05:53:20.230Z,20.90
2017-06-19T05:55:47.674Z,20.90
2017-06-19T05:58:15.873Z,21.00
2017-06-19T06:00:43.345Z,21.00
2017-06-19T06:03:10.772Z,21.10
2017-06-19T06:05:38.205Z,21.40
2017-06-19T06:08:06.418Z,21.40
2017-06-19T06:10:33.840Z,21.30
2017-06-19T06:13:01.282Z,21.70
2017-06-19T06:15:28.721Z,21.90
2017-06-19T06:17:56.169Z,22.30
2017-06-19T06:20:23.604Z,22.10
2017-06-19T06:22:51.029Z,22.10
2017-06-19T06:25:19.240Z,22.50
2017-06-19T06:27:46.670Z,22.50
2017-06-19T06:30:14.877Z,22.90
2017-06-19T06:32:42.327Z,22.90
2017-06-19T06:35:09.781Z,23.10
2017-06-19T06:37:37.209Z,23.40
2017-06-19T06:40:05.411Z,23.60
2017-06-19T06:42:32.849Z,23.60
2017-06-19T06:45:00.281Z,23.80
2017-06-19T06:47:27.721Z,23.70
2017-06-19T06:49:55.161Z,23.80
2017-06-19T06:52:22.608Z,24.00
2017-06-19T06:54:50.037Z,24.10
2017-06-19T06:57:17.470Z,24.10
2017-06-19T06:59:45.672Z,24.10
2017-06-19T07:02:13.096Z,24.10
2017-06-19T07:04:41.299Z,24.80
2017-06-19T07:07:08.728Z,24.70
2017-06-19T07:09:36.944Z,24.80
2017-06-19T07:12:04.373Z,24.80
2017-06-19T07:14:31.805Z,24.90
2017-06-19T07:16:59.249Z,25.10
2017-06-19T07:19:26.693Z,25.40
2017-06-19T07:21:54.125Z,25.80
2017-06-19T07:24:21.560Z,26.20
2017-06-19T07:26:49.781Z,26.50
2017-06-19T07:29:17.225Z,26.50
2017-06-19T07:31:44.665Z,26.80
2017-06-19T07:34:12.105Z,27.20
2017-06-19T07:36:39.548Z,27.10
2017-06-19T07:39:07.752Z,27.70
2017-06-19T07:41:35.189Z,27.70
2017-06-19T07:44:03.388Z,27.90
2017-06-19T07:46:30.829Z,27.90
2017-06-19T07:48:58.266Z,27.00
2017-06-19T07:51:26.475Z,28.00
2017-06-19T07:53:53.896Z,28.00
2017-06-19T07:56:22.094Z,28.60
2017-06-19T07:58:49.529Z,28.60
2017-06-19T08:01:17.722Z,28.90
2017-06-19T08:03:45.184Z,28.80
2017-06-19T08:06:12.609Z,29.10
2017-06-19T08:08:40.046Z,29.40
2017-06-19T08:11:07.481Z,29.40
2017-06-19T08:13:34.917Z,29.70
2017-06-19T08:16:02.363Z,29.50
2017-06-19T08:18:30.560Z,30.30
2017-06-19T08:20:58.005Z,30.20
2017-06-19T08:23:31.223Z,30.20
2017-06-19T08:25:58.670Z,30.60
2017-06-19T08:28:26.096Z,30.50
2017-06-19T08:30:53.530Z,30.90
2017-06-19T08:33:20.966Z,30.80
2017-06-19T08:35:48.402Z,31.10
2017-06-19T08:38:15.853Z,30.90
2017-06-19T08:40:43.272Z,30.80
2017-06-19T08:43:10.717Z,30.80
2017-06-19T08:45:38.149Z,30.90
2017-06-19T08:48:05.593Z,31.10
2017-06-19T08:50:33.092Z,31.00
2017-06-19T08:53:01.292Z,31.10
2017-06-19T08:55:28.726Z,31.10
2017-06-19T08:57:56.929Z,30.50
2017-06-19T09:00:24.373Z,30.50
2017-06-19T09:02:51.805Z,31.00
2017-06-19T09:05:19.237Z,31.40
2017-06-19T09:07:46.681Z,31.30
2017-06-19T09:10:14.126Z,31.50
2017-06-19T09:12:41.557Z,31.20
2017-06-19T09:15:08.988Z,30.90
2017-06-19T09:17:37.208Z,31.00
2017-06-19T09:20:04.638Z,30.90
2017-06-19T09:22:32.101Z,31.20
2017-06-19T09:24:59.614Z,31.40
2017-06-19T09:27:27.029Z,31.50
2017-06-19T09:29:54.473Z,31.50
2017-06-19T09:32:21.906Z,31.60
2017-06-19T09:34:50.117Z,31.70
2017-06-19T09:37:17.561Z,31.70
2017-06-19T09:39:44.996Z,31.70
2017-06-19T09:42:13.199Z,31.60
2017-06-19T09:44:40.629Z,31.60
2017-06-19T09:47:08.842Z,31.40
2017-06-19T09:49:36.264Z,31.40
2017-06-19T09:52:03.716Z,31.70
2017-06-19T09:54:31.914Z,31.80
2017-06-19T09:56:59.348Z,31.80
2017-06-19T09:59:27.549Z,32.20
2017-06-19T10:01:55.001Z,32.20
2017-06-19T10:04:22.436Z,32.40
2017-06-19T10:06:50.629Z,32.30
2017-06-19T10:09:18.075Z,32.40
2017-06-19T10:11:45.517Z,32.60
2017-06-19T10:14:12.977Z,32.70
2017-06-19T10:16:40.457Z,32.30
2017-06-19T10:19:07.889Z,32.60
2017-06-19T10:21:36.085Z,32.80
2017-06-19T10:24:03.517Z,32.80
2017-06-19T10:26:30.970Z,32.80
2017-06-19T10:28:58.407Z,32.60
2017-06-19T10:31:25.852Z,32.30
2017-06-19T10:33:53.294Z,32.50
2017-06-19T10:36:20.720Z,32.40
2017-06-19T10:38:48.173Z,32.30
2017-06-19T10:41:16.371Z,32.60
2017-06-19T10:43:43.837Z,32.60
2017-06-19T10:46:11.255Z,32.70
2017-06-19T10:48:39.461Z,32.90
2017-06-19T10:51:06.897Z,32.90
2017-06-19T10:53:35.113Z,32.50
2017-06-19T10:56:02.562Z,32.40
2017-06-19T10:58:30.069Z,32.30
2017-06-19T11:00:58.290Z,32.10
2017-06-19T11:03:25.718Z,32.10
2017-06-19T11:05:53.962Z,32.10
2017-06-19T11:08:21.393Z,32.10
2017-06-19T11:10:48.826Z,32.50
2017-06-19T11:13:16.272Z,32.60
2017-06-19T11:15:43.706Z,31.80
2017-06-19T11:18:11.928Z,32.30
2017-06-19T11:20:49.680Z,32.20
2017-06-19T11:23:17.183Z,32.30
2017-06-19T11:25:44.612Z,32.50
2017-06-19T11:28:12.053Z,32.80
2017-06-19T11:30:39.516Z,32.80
2017-06-19T11:33:06.927Z,32.40
2017-06-19T11:35:34.377Z,32.40
2017-06-19T11:38:01.807Z,32.60
2017-06-19T11:40:29.238Z,32.60
2017-06-19T11:42:57.441Z,32.20
2017-06-19T11:45:24.870Z,32.10
2017-06-19T11:47:53.097Z,32.10
2017-06-19T11:50:20.528Z,32.10
2017-06-19T11:52:47.956Z,32.20
2017-06-19T11:55:16.171Z,31.80
2017-06-19T11:57:43.614Z,31.80
2017-06-19T12:00:11.062Z,31.90
2017-06-19T12:02:38.534Z,32.10
2017-06-19T12:05:05.949Z,31.90
2017-06-19T12:07:34.162Z,31.90
2017-06-19T12:10:01.593Z,31.80
2017-06-19T12:12:29.800Z,31.60
2017-06-19T12:14:57.226Z,31.60
2017-06-19T12:17:25.449Z,31.60
2017-06-19T12:19:52.901Z,31.60
2017-06-19T12:22:20.336Z,31.50
2017-06-19T12:24:47.819Z,31.30
2017-06-19T12:27:15.275Z,31.30
2017-06-19T12:29:42.709Z,31.20
2017-06-19T12:32:10.145Z,31.10
2017-06-19T12:34:38.367Z,31.20
2017-06-19T12:37:05.799Z,31.20
2017-06-19T12:39:33.245Z,30.60
2017-06-19T12:42:00.686Z,30.80
2017-06-19T12:44:28.894Z,30.90
2017-06-19T12:46:56.332Z,30.90
2017-06-19T12:49:23.761Z,30.90
2017-06-19T12:51:51.205Z,30.80
2017-06-19T12:54:18.634Z,30.90
2017-06-19T12:56:46.066Z,30.60
2017-06-19T12:59:13.501Z,30.70
2017-06-19T13:01:41.713Z,30.80
2017-06-19T13:04:09.162Z,30.80
2017-06-19T13:06:36.624Z,30.60
2017-06-19T13:09:04.076Z,30.70
2017-06-19T13:11:31.506Z,30.70
2017-06-19T13:13:58.945Z,30.50
2017-06-19T13:16:26.386Z,30.50
2017-06-19T13:18:53.870Z,30.40
2017-06-19T13:21:22.127Z,30.20
2017-06-19T13:23:49.556Z,30.20
2017-06-19T13:26:17.005Z,30.20
2017-06-19T13:28:44.437Z,30.30
2017-06-19T13:31:11.869Z,30.40
2017-06-19T13:33:40.080Z,30.20
2017-06-19T13:36:07.513Z,30.10
2017-06-19T13:38:34.954Z,30.20
2017-06-19T13:41:03.149Z,30.20
2017-06-19T13:43:30.590Z,30.20
2017-06-19T13:45:58.789Z,30.30
2017-06-19T13:48:26.221Z,30.30
2017-06-19T13:50:53.661Z,30.30
2017-06-19T13:53:21.093Z,30.30
2017-06-19T13:55:48.597Z,30.40
2017-06-19T13:58:16.803Z,30.50
2017-06-19T14:00:44.245Z,30.40
2017-06-19T14:03:11.688Z,30.50
2017-06-19T14:05:39.139Z,30.60
2017-06-19T14:08:07.346Z,30.60
2017-06-19T14:10:34.798Z,30.60
2017-06-19T14:13:02.325Z,30.60
2017-06-19T14:15:30.525Z,30.70
2017-06-19T14:17:58.053Z,30.70
2017-06-19T14:20:26.261Z,30.70
2017-06-19T14:22:53.689Z,30.70
2017-06-19T14:25:21.890Z,30.80
2017-06-19T14:27:49.325Z,30.80
2017-06-19T14:30:16.757Z,30.70
2017-06-19T14:32:44.191Z,30.80
2017-06-19T14:35:11.634Z,30.80
2017-06-19T14:37:39.068Z,30.70
2017-06-19T14:40:06.522Z,30.70
2017-06-19T14:42:33.949Z,30.70
2017-06-19T14:45:01.445Z,30.80
2017-06-19T14:47:28.982Z,30.70
2017-06-19T14:49:57.177Z,30.60
2017-06-19T14:52:24.615Z,30.60
2017-06-19T14:54:52.805Z,30.50
2017-06-19T14:57:20.241Z,30.50
2017-06-19T14:59:48.513Z,30.50
2017-06-19T15:02:16.713Z,30.60
2017-06-19T15:04:44.149Z,30.50
2017-06-19T15:07:12.349Z,30.40
2017-06-19T15:09:39.776Z,30.40
2017-06-19T15:12:07.976Z,30.30
2017-06-19T15:14:35.413Z,30.30
2017-06-19T15:17:03.630Z,30.30
2017-06-19T15:19:31.061Z,30.30
2017-06-19T15:22:04.145Z,30.20
2017-06-19T15:24:31.576Z,30.30
2017-06-19T15:26:59.855Z,30.30
2017-06-19T15:29:28.061Z,30.20
2017-06-19T15:31:55.489Z,30.20
2017-06-19T15:34:23.709Z,30.20
2017-06-19T15:36:51.150Z,30.10
2017-06-19T15:39:18.673Z,30.00
2017-06-19T15:41:46.877Z,30.20
2017-06-19T15:44:14.304Z,30.20
2017-06-19T15:46:41.736Z,30.10
2017-06-19T15:49:09.174Z,30.10
2017-06-19T15:51:36.622Z,30.10
2017-06-19T15:54:04.048Z,30.00
2017-06-19T15:56:31.481Z,30.10
2017-06-19T15:58:58.923Z,30.10
2017-06-19T16:01:26.349Z,30.10
2017-06-19T16:03:53.799Z,30.00
2017-06-19T16:06:21.225Z,30.10
2017-06-19T16:08:49.440Z,30.20
2017-06-19T16:11:16.881Z,30.10
2017-06-19T16:13:44.309Z,30.10
2017-06-19T16:16:12.513Z,30.10
2017-06-19T16:18:39.948Z,30.10
2017-06-19T16:21:07.551Z,30.10
2017-06-19T16:23:34.965Z,30.10
2017-06-19T16:26:02.437Z,30.00
2017-06-19T16:28:29.866Z,29.90
2017-06-19T16:30:58.064Z,30.00
2017-06-19T16:33:25.505Z,30.00
2017-06-19T16:35:53.696Z,30.00
2017-06-19T16:38:21.142Z,30.00
2017-06-19T16:40:49.449Z,29.90
2017-06-19T16:43:16.888Z,29.90
2017-06-19T16:45:44.320Z,29.90
2017-06-19T16:48:12.549Z,29.90
2017-06-19T16:50:39.977Z,29.90
2017-06-19T16:53:07.417Z,29.90
2017-06-19T16:55:35.624Z,29.80
2017-06-19T16:58:03.060Z,29.80
2017-06-19T17:00:30.520Z,29.90
2017-06-19T17:02:57.953Z,29.80
2017-06-19T17:05:26.225Z,29.80
2017-06-19T17:07:54.432Z,29.80
2017-06-19T17:10:21.861Z,29.80
2017-06-19T17:12:50.077Z,29.70
2017-06-19T17:15:17.510Z,29.80
2017-06-19T17:17:44.977Z,29.70
2017-06-19T17:20:12.423Z,29.70
2017-06-19T17:22:39.852Z,29.70
2017-06-19T17:25:07.290Z,29.60
2017-06-19T17:27:34.900Z,29.60
2017-06-19T17:30:02.341Z,29.50
2017-06-19T17:32:30.626Z,29.50
2017-06-19T17:34:58.131Z,29.50
2017-06-19T17:37:25.540Z,29.50
2017-06-19T17:39:52.974Z,29.50
2017-06-19T17:42:20.443Z,29.40
2017-06-19T17:44:48.637Z,29.20
2017-06-19T17:47:16.072Z,29.20
2017-06-19T17:49:44.332Z,29.10
2017-06-19T17:52:11.813Z,29.10
2017-06-19T17:54:40.033Z,28.90
2017-06-19T17:57:07.472Z,28.90
2017-06-19T17:59:34.905Z,28.90
2017-06-19T18:02:02.349Z,28.90
2017-06-19T18:04:30.569Z,28.80
2017-06-19T18:06:58.006Z,28.80
2017-06-19T18:09:25.461Z,28.80
2017-06-19T18:11:52.993Z,28.90
2017-06-19T18:14:20.437Z,28.80
2017-06-19T18:16:48.566Z,28.70
2017-06-19T18:19:15.997Z,28.70
2017-06-19T18:21:43.667Z,28.70
2017-06-19T18:24:11.857Z,28.50
2017-06-19T18:26:39.285Z,28.50
2017-06-19T18:29:06.741Z,28.40
2017-06-19T18:31:34.169Z,28.30
2017-06-19T18:34:01.625Z,28.20
2017-06-19T18:36:29.057Z,28.10
2017-06-19T18:38:56.553Z,28.10
2017-06-19T18:41:24.012Z,28.00
2017-06-19T18:43:53.205Z,27.80
2017-06-19T18:46:20.677Z,27.80
2017-06-19T18:48:48.874Z,27.70
2017-06-19T18:51:16.313Z,27.70
2017-06-19T18:53:43.745Z,27.60
2017-06-19T18:56:11.176Z,27.50
2017-06-19T18:58:38.610Z,27.50
2017-06-19T19:01:06.577Z,27.40
2017-06-19T19:03:34.004Z,27.30
2017-06-19T19:06:02.198Z,27.10
2017-06-19T19:08:29.648Z,27.10
2017-06-19T19:10:57.081Z,27.00
2017-06-19T19:13:24.532Z,26.90
2017-06-19T19:15:51.995Z,26.90
2017-06-19T19:18:19.449Z,26.80
2017-06-19T19:20:46.885Z,26.70
2017-06-19T19:23:14.362Z,26.60
2017-06-19T19:25:41.814Z,26.60
2017-06-19T19:28:10.013Z,26.40
2017-06-19T19:30:37.445Z,26.40
2017-06-19T19:33:04.884Z,26.30
2017-06-19T19:35:32.316Z,26.20
2017-06-19T19:37:59.755Z,26.00
2017-06-19T19:40:27.209Z,25.90
2017-06-19T19:42:54.645Z,25.80
2017-06-19T19:45:22.849Z,25.70
2017-06-19T19:47:50.277Z,25.70
2017-06-19T19:50:17.716Z,25.70
2017-06-19T19:52:45.913Z,25.60
2017-06-19T19:55:13.405Z,25.60
2017-06-19T19:57:41.889Z,25.50
2017-06-19T20:00:09.357Z,25.50
2017-06-19T20:02:37.084Z,25.40
2017-06-19T20:05:10.281Z,25.40
2017-06-19T20:07:37.716Z,25.30
2017-06-19T20:10:05.906Z,25.00
2017-06-19T20:12:33.382Z,25.00
2017-06-19T20:15:00.809Z,24.90
2017-06-19T20:17:28.753Z,24.80
2017-06-19T20:19:56.244Z,24.80
2017-06-19T20:22:24.561Z,24.70
2017-06-19T20:24:53.653Z,24.60
2017-06-19T20:27:22.940Z,24.40
2017-06-19T20:29:51.181Z,24.10
2017-06-19T20:32:18.617Z,23.90
2017-06-19T20:34:46.941Z,23.80
2017-06-19T20:37:14.838Z,23.80
2017-06-19T20:39:42.283Z,23.70
2017-06-19T20:42:09.730Z,23.70
2017-06-19T20:44:37.161Z,23.50
2017-06-19T20:47:04.599Z,23.40
2017-06-19T20:49:32.796Z,23.20
2017-06-19T20:52:00.237Z,23.10
2017-06-19T20:54:27.666Z,23.20
2017-06-19T20:56:55.129Z,23.10
2017-06-19T20:59:22.560Z,23.00
2017-06-19T21:01:50.008Z,22.90
2017-06-19T21:04:17.450Z,22.70
2017-06-19T21:06:44.877Z,22.60
2017-06-19T21:09:12.309Z,22.50
2017-06-19T21:11:39.740Z,22.50
2017-06-19T21:14:07.241Z,22.40
2017-06-19T21:16:34.677Z,22.30
2017-06-19T21:19:02.209Z,22.30
2017-06-19T21:21:29.650Z,22.20
2017-06-19T21:23:57.076Z,22.10
2017-06-19T21:26:24.515Z,22.10
2017-06-19T21:28:52.712Z,22.10
2017-06-19T21:31:20.165Z,22.00
2017-06-19T21:33:47.589Z,22.00
2017-06-19T21:36:15.880Z,22.00
2017-06-19T21:38:43.312Z,21.80
2017-06-19T21:41:10.748Z,21.80
2017-06-19T21:43:38.198Z,21.70
2017-06-19T21:46:05.627Z,21.70
2017-06-19T21:48:33.085Z,21.60
2017-06-19T21:51:00.513Z,21.50
2017-06-19T21:53:27.940Z,21.50
2017-06-19T21:55:55.378Z,21.50
2017-06-19T21:58:22.805Z,21.30
2017-06-19T22:00:50.241Z,21.30
2017-06-19T22:03:18.440Z,21.20
2017-06-19T22:05:45.913Z,21.10
2017-06-19T22:08:13.352Z,21.10
2017-06-19T22:10:40.785Z,21.00
2017-06-19T22:13:09.000Z,20.90
2017-06-19T22:15:36.428Z,20.90
2017-06-19T22:18:04.638Z,20.80
2017-06-19T22:20:32.065Z,20.80
2017-06-19T22:22:59.518Z,20.80
2017-06-19T22:25:27.712Z,20.80
2017-06-19T22:27:55.145Z,20.80
2017-06-19T22:30:22.588Z,20.80
2017-06-19T22:32:50.018Z,20.70
2017-06-19T22:35:17.465Z,20.80
2017-06-19T22:37:44.908Z,20.70
2017-06-19T22:40:12.336Z,20.60
2017-06-19T22:42:39.780Z,20.50
2017-06-19T22:45:07.200Z,20.40
2017-06-19T22:47:34.934Z,20.30
2017-06-19T22:50:02.346Z,20.30
2017-06-19T22:52:29.778Z,20.30
2017-06-19T22:54:57.214Z,20.30
2017-06-19T22:57:24.646Z,20.30
2017-06-19T22:59:52.080Z,20.30
2017-06-19T23:02:20.277Z,20.20
2017-06-19T23:04:47.725Z,20.10
2017-06-19T23:07:15.917Z,20.10
2017-06-19T23:09:43.345Z,20.10
2017-06-19T23:12:11.551Z,20.00
2017-06-19T23:14:38.989Z,20.00
2017-06-19T23:17:06.421Z,20.00
2017-06-19T23:19:33.861Z,20.00
2017-06-19T23:22:01.317Z,20.00
2017-06-19T23:24:28.750Z,20.00
2017-06-19T23:26:56.184Z,20.00
2017-06-19T23:29:23.701Z,19.90
2017-06-19T23:31:51.137Z,19.90
2017-06-19T23:34:18.597Z,19.90
2017-06-19T23:36:46.041Z,19.80
2017-06-19T23:39:13.473Z,19.70
2017-06-19T23:41:40.919Z,19.70
2017-06-19T23:44:09.108Z,19.60
2017-06-19T23:46:36.561Z,19.60
2017-06-19T23:49:03.994Z,19.60
2017-06-19T23:51:32.202Z,19.60
2017-06-19T23:53:59.630Z,19.50
2017-06-19T23:56:27.896Z,19.50
2017-06-19T23:58:56.113Z,19.40
